Time;durP1;ratioP1;P1;durP2;ratioP2;P2;SDS_P1;SDS_P2;PMS_P1;PMS_P2;Temp;Humidity;BMP_temperature;BMP_pressure;BME280_temperature;BME280_humidity;BME280_pressure;Samples;Min_cycle;Max_cycle;Signal;HPM_P1;HPM_P2
2022/05/08 00:00:33;;;;;;;22.98;5.05;;;8.50;99.90;;;;;;5035653;28;20129;-67
2022/05/08 00:02:59;;;;;;;32.50;5.25;;;8.50;99.90;;;;;;5042479;28;20056;-67
2022/05/08 00:05:27;;;;;;;22.52;4.90;;;8.40;99.90;;;;;;5040131;28;20036;-67
2022/05/08 00:07:53;;;;;;;31.48;5.25;;;8.40;99.90;;;;;;5038534;28;20080;-68
2022/05/08 00:10:19;;;;;;;28.60;5.25;;;8.30;99.90;;;;;;5038149;28;20072;-67
2022/05/08 00:12:45;;;;;;;26.70;4.70;;;8.30;99.90;;;;;;5040515;28;20468;-68
2022/05/08 00:15:11;;;;;;;25.92;4.85;;;8.20;99.90;;;;;;5041684;28;20175;-67
2022/05/08 00:17:37;;;;;;;33.75;6.13;;;8.20;99.90;;;;;;5041219;28;20749;-67
2022/05/08 00:20:04;;;;;;;27.80;5.63;;;8.20;99.90;;;;;;5039403;28;20047;-67
2022/05/08 00:22:30;;;;;;;22.52;4.60;;;8.10;99.90;;;;;;5037982;28;20044;-67
2022/05/08 00:24:55;;;;;;;19.13;4.32;;;8.10;99.90;;;;;;5042893;28;20037;-67
2022/05/08 00:27:21;;;;;;;30.15;6.18;;;8.10;99.90;;;;;;5037091;28;20043;-67
2022/05/08 00:29:46;;;;;;;30.38;5.63;;;8.00;99.90;;;;;;5024542;28;20065;-67
2022/05/08 00:32:12;;;;;;;29.30;5.25;;;8.00;99.90;;;;;;5038373;28;20076;-67
2022/05/08 00:34:38;;;;;;;27.77;5.30;;;8.00;99.90;;;;;;5073666;28;20037;-67
2022/05/08 00:37:04;;;;;;;30.50;5.40;;;7.90;99.90;;;;;;5039770;28;20437;-68
2022/05/08 00:39:29;;;;;;;28.60;5.28;;;7.90;99.90;;;;;;5073234;28;20033;-68
2022/05/08 00:41:55;;;;;;;27.42;5.55;;;7.90;99.90;;;;;;5042438;28;20041;-67
2022/05/08 00:44:21;;;;;;;31.02;5.63;;;7.80;99.90;;;;;;5044385;28;20072;-68
2022/05/08 00:46:48;;;;;;;29.05;5.80;;;7.80;99.90;;;;;;5042648;28;20531;-67
2022/05/08 00:49:14;;;;;;;29.80;5.30;;;7.70;99.90;;;;;;5076440;28;20126;-68
2022/05/08 00:51:40;;;;;;;24.77;5.32;;;7.70;99.90;;;;;;5046275;28;20569;-67
2022/05/08 00:54:05;;;;;;;26.17;4.95;;;7.70;99.90;;;;;;5043311;28;20049;-68
2022/05/08 00:56:31;;;;;;;33.15;6.00;;;7.60;99.90;;;;;;5045584;28;20059;-67
2022/05/08 00:58:57;;;;;;;29.70;5.55;;;7.60;99.90;;;;;;5057800;28;20466;-68
2022/05/08 01:01:23;;;;;;;28.92;5.15;;;7.60;99.90;;;;;;5043009;28;20095;-67
2022/05/08 01:03:48;;;;;;;25.27;5.60;;;7.50;99.90;;;;;;5044830;28;20037;-67
2022/05/08 01:06:16;;;;;;;28.58;4.82;;;7.50;99.90;;;;;;5044398;28;20037;-68
2022/05/08 01:08:46;;;;;;;29.17;5.70;;;7.40;99.90;;;;;;5044488;28;20041;-67
2022/05/08 01:11:12;;;;;;;24.38;5.03;;;7.40;99.90;;;;;;5040324;28;20049;-68
2022/05/08 01:13:39;;;;;;;27.80;5.07;;;7.20;99.90;;;;;;5036959;28;20052;-67
2022/05/08 01:16:16;;;;;;;23.83;5.03;;;7.10;99.90;;;;;;5042326;28;20075;-68
2022/05/08 01:18:46;;;;;;;26.80;5.72;;;7.10;99.90;;;;;;5047727;28;20036;-67
2022/05/08 01:21:17;;;;;;;27.25;5.50;;;7.00;99.90;;;;;;5074144;28;20119;-67
2022/05/08 01:23:44;;;;;;;25.92;5.80;;;6.90;99.90;;;;;;5073034;28;20262;-67
2022/05/08 01:26:10;;;;;;;30.27;4.78;;;6.80;99.90;;;;;;5050672;28;20045;-68
2022/05/08 01:28:35;;;;;;;23.33;4.97;;;6.70;99.90;;;;;;5037314;28;20043;-67
2022/05/08 01:31:01;;;;;;;27.63;4.95;;;6.70;99.90;;;;;;5045558;28;20484;-67
2022/05/08 01:33:27;;;;;;;22.08;4.75;;;6.60;99.90;;;;;;5075783;28;20184;-68
2022/05/08 01:35:53;;;;;;;18.42;5.40;;;6.50;99.90;;;;;;5041624;28;20041;-67
2022/05/08 01:38:21;;;;;;;27.77;6.00;;;6.40;99.90;;;;;;5075637;28;20472;-67
2022/05/08 01:40:48;;;;;;;30.50;5.68;;;6.40;99.90;;;;;;5043441;28;20163;-67
2022/05/08 01:43:14;;;;;;;28.10;5.47;;;6.40;99.90;;;;;;5040322;28;20053;-67
2022/05/08 01:45:40;;;;;;;27.83;4.95;;;6.40;99.90;;;;;;5043596;28;20052;-68
2022/05/08 01:48:22;;;;;;;22.48;4.82;;;6.40;99.90;;;;;;5041288;28;20036;-67
2022/05/08 01:50:50;;;;;;;31.20;5.53;;;6.20;99.90;;;;;;5042134;28;20044;-67
2022/05/08 01:53:16;;;;;;;29.77;5.07;;;6.20;99.90;;;;;;5041910;28;20044;-67
2022/05/08 01:55:42;;;;;;;21.17;4.90;;;6.10;99.90;;;;;;5044405;28;20111;-67
2022/05/08 01:58:07;;;;;;;26.70;5.25;;;6.10;99.90;;;;;;5044788;28;20425;-67
2022/05/08 02:00:33;;;;;;;33.17;5.93;;;6.10;99.90;;;;;;5043997;28;20037;-67
2022/05/08 02:03:00;;;;;;;25.80;4.90;;;6.10;99.90;;;;;;5042091;28;20036;-67
2022/05/08 02:05:28;;;;;;;27.13;5.60;;;6.10;99.90;;;;;;5044123;28;20033;-67
2022/05/08 02:07:55;;;;;;;25.42;5.30;;;6.10;99.90;;;;;;5042208;28;20120;-67
2022/05/08 02:10:21;;;;;;;26.77;5.07;;;6.00;99.90;;;;;;5074040;28;20037;-67
2022/05/08 02:12:46;;;;;;;31.73;6.22;;;6.00;99.90;;;;;;5042548;28;20084;-67
2022/05/08 02:15:13;;;;;;;30.40;4.72;;;6.10;99.90;;;;;;5043229;28;20064;-67
2022/05/08 02:17:39;;;;;;;19.65;4.93;;;6.00;99.90;;;;;;5042638;28;20037;-67
2022/05/08 02:20:07;;;;;;;23.05;5.10;;;6.00;99.90;;;;;;5041788;28;20060;-67
2022/05/08 02:22:33;;;;;;;19.52;5.57;;;5.90;99.90;;;;;;5042491;28;20460;-67
2022/05/08 02:24:59;;;;;;;27.17;5.57;;;5.80;99.90;;;;;;5045544;28;20135;-67
2022/05/08 02:27:25;;;;;;;22.80;4.85;;;5.80;99.90;;;;;;5057793;28;21348;-67
2022/05/08 02:29:51;;;;;;;25.73;5.18;;;5.70;99.90;;;;;;5057417;28;20285;-67
2022/05/08 02:32:18;;;;;;;20.33;4.63;;;5.60;99.90;;;;;;5042343;28;20033;-67
2022/05/08 02:34:44;;;;;;;21.00;5.30;;;5.60;99.90;;;;;;5045995;28;20040;-67
2022/05/08 02:37:09;;;;;;;22.90;4.82;;;5.50;99.90;;;;;;5043445;28;20059;-67
2022/05/08 02:39:35;;;;;;;16.42;4.18;;;5.50;99.90;;;;;;5044272;28;20060;-67
2022/05/08 02:42:01;;;;;;;20.02;5.50;;;5.40;99.90;;;;;;5043447;28;20072;-67
2022/05/08 02:44:26;;;;;;;19.30;5.07;;;5.30;99.90;;;;;;5037969;28;20037;-66
2022/05/08 02:46:52;;;;;;;17.27;5.25;;;5.30;99.90;;;;;;5036898;28;20068;-67
2022/05/08 02:49:17;;;;;;;17.58;4.47;;;5.30;99.90;;;;;;5038947;28;20041;-67
2022/05/08 02:51:43;;;;;;;17.88;4.30;;;5.30;99.90;;;;;;5042666;28;20388;-67
2022/05/08 02:54:08;;;;;;;4.43;1.90;;;5.20;99.90;;;;;;5042463;28;20491;-67
2022/05/08 02:59:18;;;;;;;2.13;1.20;;;4.90;99.90;;;;;;5042111;28;20083;-67
2022/05/08 03:01:43;;;;;;;2.88;1.55;;;4.80;99.90;;;;;;5043482;28;20579;-67
2022/05/08 03:04:09;;;;;;;9.02;2.20;;;4.60;99.90;;;;;;5043935;28;20037;-66
2022/05/08 03:06:35;;;;;;;5.05;1.63;;;4.60;99.90;;;;;;5044325;28;20036;-67
2022/05/08 03:09:00;;;;;;;8.27;2.75;;;4.50;99.90;;;;;;5043830;28;20044;-67
2022/05/08 03:11:26;;;;;;;7.78;2.05;;;4.40;99.90;;;;;;5043711;28;20037;-67
2022/05/08 03:13:53;;;;;;;6.43;2.58;;;4.40;99.90;;;;;;5046271;28;20047;-67
2022/05/08 03:16:19;;;;;;;6.13;2.00;;;4.40;99.90;;;;;;5073306;28;20047;-67
2022/05/08 03:18:45;;;;;;;6.43;1.60;;;4.30;99.90;;;;;;5041009;28;20037;-67
2022/05/08 03:21:12;;;;;;;7.25;2.10;;;4.30;99.90;;;;;;5037184;28;20052;-67
2022/05/08 03:23:42;;;;;;;8.00;1.77;;;4.20;99.90;;;;;;5027425;28;20057;-67
2022/05/08 03:26:08;;;;;;;5.43;1.20;;;4.20;99.90;;;;;;5057839;28;20059;-67
2022/05/08 03:28:35;;;;;;;50.03;2.40;;;4.20;99.90;;;;;;5076925;28;20048;-67
2022/05/08 03:31:01;;;;;;;436.95;16.17;;;4.20;99.90;;;;;;5057091;28;20059;-67
2022/05/08 03:33:29;;;;;;;227.00;9.45;;;4.20;99.90;;;;;;5046262;28;20059;-67
2022/05/08 03:35:55;;;;;;;6.47;2.13;;;4.10;99.90;;;;;;5039450;28;20037;-67
2022/05/08 03:38:21;;;;;;;7.35;2.45;;;4.20;99.90;;;;;;5041797;28;20033;-67
2022/05/08 03:40:47;;;;;;;13.50;3.00;;;4.20;99.90;;;;;;5073987;28;20413;-66
2022/05/08 03:43:13;;;;;;;18.95;3.72;;;4.20;99.90;;;;;;5044004;28;20131;-67
2022/05/08 03:45:38;;;;;;;9.52;2.50;;;4.20;99.90;;;;;;5054240;28;20044;-67
2022/05/08 03:48:05;;;;;;;7.13;2.05;;;4.30;99.90;;;;;;5041723;28;20045;-66
2022/05/08 03:50:30;;;;;;;16.50;2.22;;;4.20;99.90;;;;;;5040223;28;20051;-67
2022/05/08 03:52:57;;;;;;;20.23;2.95;;;4.20;99.90;;;;;;5046075;28;20076;-67
2022/05/08 03:55:23;;;;;;;10.50;3.03;;;4.20;99.90;;;;;;5074048;28;20044;-67
2022/05/08 03:57:48;;;;;;;7.40;2.47;;;4.10;99.90;;;;;;5057539;28;20047;-67
2022/05/08 04:00:15;;;;;;;194.18;7.38;;;4.10;99.90;;;;;;5043692;28;20060;-66
2022/05/08 04:02:41;;;;;;;10.32;2.63;;;4.20;99.90;;;;;;5042028;28;20384;-67
2022/05/08 04:05:08;;;;;;;14.10;2.45;;;4.20;99.90;;;;;;5039357;28;20052;-67
2022/05/08 04:07:33;;;;;;;29.83;4.88;;;4.30;99.90;;;;;;5040101;28;20068;-67
2022/05/08 04:09:59;;;;;;;25.92;3.72;;;4.30;99.90;;;;;;5038744;28;20107;-67
2022/05/08 04:12:26;;;;;;;214.30;10.00;;;4.30;99.90;;;;;;5068025;28;20033;-67
2022/05/08 04:14:52;;;;;;;341.73;13.38;;;4.30;99.90;;;;;;5039389;28;20481;-67
2022/05/08 04:17:17;;;;;;;507.60;18.75;;;4.40;99.90;;;;;;5042204;28;20153;-67
2022/05/08 04:19:43;;;;;;;166.20;8.18;;;4.40;99.90;;;;;;5030157;28;20110;-67
2022/05/08 04:24:53;;;;;;;12.35;2.97;;;4.50;99.90;;;;;;5075176;28;20106;-67
2022/05/08 04:27:19;;;;;;;12.63;3.22;;;4.50;99.90;;;;;;5072936;28;20045;-67
2022/05/08 04:29:45;;;;;;;12.73;3.05;;;4.50;99.90;;;;;;5073026;28;20045;-67
2022/05/08 04:32:11;;;;;;;10.23;3.35;;;4.50;99.90;;;;;;5044407;28;20047;-67
2022/05/08 04:34:36;;;;;;;7.07;2.60;;;4.50;99.90;;;;;;5076236;28;20515;-67
2022/05/08 04:37:03;;;;;;;13.88;3.00;;;4.60;99.90;;;;;;5043553;28;20682;-67
2022/05/08 04:39:28;;;;;;;7.78;2.40;;;4.60;99.90;;;;;;5027659;28;20079;-67
2022/05/08 04:41:54;;;;;;;17.88;4.47;;;4.60;99.90;;;;;;5042872;28;20068;-67
2022/05/08 04:44:19;;;;;;;28.30;5.80;;;4.60;99.90;;;;;;5074307;28;20064;-67
2022/05/08 04:46:45;;;;;;;20.33;5.43;;;4.70;99.90;;;;;;5043300;28;20045;-67
2022/05/08 04:49:10;;;;;;;26.63;6.20;;;4.80;99.90;;;;;;5041720;28;20804;-67
2022/05/08 04:51:36;;;;;;;23.13;6.45;;;4.80;99.90;;;;;;5038917;28;20577;-67
2022/05/08 04:54:02;;;;;;;22.52;6.13;;;5.00;99.90;;;;;;5040417;28;20133;-67
2022/05/08 04:56:29;;;;;;;20.98;5.80;;;5.00;99.90;;;;;;5039838;28;20087;-67
2022/05/08 04:58:55;;;;;;;20.60;5.95;;;5.00;99.90;;;;;;5043142;28;20443;-67
2022/05/08 05:01:21;;;;;;;28.85;6.05;;;5.20;99.90;;;;;;5046882;28;20040;-67
2022/05/08 05:03:47;;;;;;;21.42;5.60;;;5.20;99.90;;;;;;5042765;28;20045;-66
2022/05/08 05:06:13;;;;;;;25.52;6.65;;;5.20;99.90;;;;;;5046662;28;20037;-67
2022/05/08 05:08:38;;;;;;;26.95;7.53;;;5.30;99.90;;;;;;5041002;28;20044;-67
2022/05/08 05:11:08;;;;;;;22.23;6.78;;;5.30;99.90;;;;;;5043226;28;20076;-67
2022/05/08 05:13:34;;;;;;;18.20;5.75;;;5.40;99.90;;;;;;5072898;28;20053;-66
2022/05/08 05:15:59;;;;;;;17.02;4.82;;;5.40;99.90;;;;;;5044675;28;20476;-67
2022/05/08 05:18:25;;;;;;;9.77;3.25;;;5.50;99.90;;;;;;5040455;28;20040;-67
2022/05/08 05:20:51;;;;;;;9.98;3.15;;;5.60;99.90;;;;;;5042820;28;20040;-67
2022/05/08 05:23:16;;;;;;;14.77;4.28;;;5.60;99.90;;;;;;5069275;28;20050;-67
2022/05/08 05:25:42;;;;;;;8.43;2.97;;;5.60;99.90;;;;;;5040301;28;20119;-67
2022/05/08 05:28:07;;;;;;;7.55;2.92;;;5.70;99.90;;;;;;5042718;28;20041;-67
2022/05/08 05:30:33;;;;;;;9.75;3.70;;;5.70;99.90;;;;;;5039846;28;20033;-67
2022/05/08 05:32:58;;;;;;;13.15;3.65;;;5.80;99.90;;;;;;5038259;28;20053;-67
2022/05/08 05:35:24;;;;;;;16.17;5.10;;;5.80;99.90;;;;;;5049354;28;20045;-67
2022/05/08 05:37:50;;;;;;;17.58;4.82;;;5.90;99.90;;;;;;5043954;28;20033;-67
2022/05/08 05:40:15;;;;;;;20.08;6.07;;;6.00;99.90;;;;;;5041042;28;20137;-67
2022/05/08 05:42:41;;;;;;;20.20;6.75;;;6.10;99.90;;;;;;5041278;28;20032;-67
2022/05/08 05:45:07;;;;;;;29.17;7.18;;;6.30;99.90;;;;;;5072373;28;20057;-67
2022/05/08 05:47:50;;;;;;;24.52;6.75;;;6.40;99.90;;;;;;5044720;28;20157;-67
2022/05/08 05:50:26;;;;;;;29.60;7.35;;;6.60;99.90;;;;;;5071124;28;20042;-67
2022/05/08 05:52:52;;;;;;;31.92;7.05;;;6.80;99.90;;;;;;5053341;28;21432;-67
2022/05/08 05:55:19;;;;;;;26.48;7.47;;;6.90;99.90;;;;;;5074901;28;20032;-67
2022/05/08 05:57:45;;;;;;;23.48;7.40;;;7.20;99.90;;;;;;5040661;28;20068;-67
2022/05/08 06:00:13;;;;;;;23.52;7.18;;;7.30;99.90;;;;;;5039949;28;20029;-67
2022/05/08 06:02:40;;;;;;;26.65;6.88;;;7.40;99.90;;;;;;5042946;28;20041;-67
2022/05/08 06:05:06;;;;;;;29.95;6.80;;;7.60;99.90;;;;;;5042871;28;20041;-67
2022/05/08 06:07:36;;;;;;;26.63;6.78;;;7.70;99.90;;;;;;5044103;28;20032;-67
2022/05/08 06:10:04;;;;;;;26.90;7.80;;;7.90;99.90;;;;;;5040321;28;20044;-68
2022/05/08 06:12:29;;;;;;;24.10;6.53;;;8.10;99.90;;;;;;5075222;28;20040;-68
2022/05/08 06:14:55;;;;;;;22.00;6.38;;;8.20;99.90;;;;;;5060503;28;20040;-67
2022/05/08 06:17:21;;;;;;;20.38;6.25;;;8.40;99.90;;;;;;5044390;28;20112;-67
2022/05/08 06:19:46;;;;;;;23.25;6.30;;;8.50;99.90;;;;;;5042231;28;20056;-67
2022/05/08 06:22:12;;;;;;;19.02;6.40;;;8.60;99.90;;;;;;5039297;28;20036;-67
2022/05/08 06:24:40;;;;;;;22.00;6.10;;;8.80;99.90;;;;;;5042943;28;20502;-69
2022/05/08 06:27:06;;;;;;;23.70;6.18;;;8.90;99.90;;;;;;5043198;28;20392;-67
2022/05/08 06:29:32;;;;;;;23.83;5.65;;;9.00;99.90;;;;;;5040597;28;20051;-67
2022/05/08 06:31:58;;;;;;;20.95;5.63;;;9.10;99.90;;;;;;5041859;28;20400;-68
2022/05/08 06:34:23;;;;;;;24.85;6.15;;;9.20;99.90;;;;;;5056376;28;20040;-68
2022/05/08 06:36:49;;;;;;;17.95;5.57;;;9.40;99.90;;;;;;5058196;28;20537;-68
2022/05/08 06:39:15;;;;;;;18.77;5.15;;;9.50;99.90;;;;;;5039763;28;20454;-69
2022/05/08 06:41:41;;;;;;;18.08;5.05;;;9.60;99.90;;;;;;5045027;28;20033;-67
2022/05/08 06:44:07;;;;;;;22.25;4.68;;;9.70;99.90;;;;;;5047436;28;20423;-67
2022/05/08 06:46:35;;;;;;;23.95;5.00;;;9.90;99.90;;;;;;5050808;28;20041;-69
2022/05/08 06:49:01;;;;;;;20.10;4.28;;;10.00;99.90;;;;;;5056261;28;20051;-67
2022/05/08 06:51:27;;;;;;;21.13;3.88;;;10.20;99.90;;;;;;5045382;28;20044;-67
2022/05/08 06:53:53;;;;;;;15.50;4.47;;;10.20;99.90;;;;;;5081436;28;20041;-68
2022/05/08 06:56:18;;;;;;;16.13;3.83;;;10.30;99.90;;;;;;5046612;28;20034;-68
2022/05/08 07:01:42;;;;;;;11.68;4.15;;;10.50;99.90;;;;;;5046909;28;20131;-68
2022/05/08 07:04:11;;;;;;;18.13;3.63;;;10.60;99.90;;;;;;5077648;28;20040;-69
2022/05/08 07:06:38;;;;;;;12.07;3.58;;;10.70;99.90;;;;;;5047424;28;20041;-67
2022/05/08 07:09:04;;;;;;;13.52;3.10;;;10.90;99.90;;;;;;5047843;28;20037;-68
2022/05/08 07:11:33;;;;;;;12.75;2.85;;;10.90;99.90;;;;;;5081561;28;20478;-73
2022/05/08 07:14:00;;;;;;;13.82;3.13;;;10.90;99.90;;;;;;5047000;28;20143;-71
2022/05/08 07:16:25;;;;;;;16.35;3.40;;;11.00;99.90;;;;;;5047626;28;20052;-71
2022/05/08 07:18:51;;;;;;;13.45;3.17;;;11.20;99.90;;;;;;5048420;28;20522;-72
2022/05/08 07:21:19;;;;;;;12.13;2.97;;;11.40;99.90;;;;;;5050783;28;20432;-71
2022/05/08 07:23:44;;;;;;;11.40;3.00;;;11.60;99.90;;;;;;5083567;28;20029;-73
2022/05/08 07:26:10;;;;;;;21.00;4.32;;;11.70;99.90;;;;;;5049791;28;20422;-71
2022/05/08 07:28:35;;;;;;;17.30;3.47;;;11.80;99.90;;;;;;5034016;28;20041;-72
2022/05/08 07:31:03;;;;;;;15.68;3.88;;;11.90;99.90;;;;;;5049762;28;20064;-70
2022/05/08 07:33:29;;;;;;;15.52;3.10;;;12.10;99.90;;;;;;5049731;28;20430;-73
2022/05/08 07:36:14;;;;;;;11.27;3.30;;;12.20;99.90;;;;;;5049382;28;20045;-71
2022/05/08 07:38:45;;;;;;;17.60;3.42;;;12.30;99.90;;;;;;5047246;28;20040;-72
2022/05/08 07:41:15;;;;;;;14.60;2.72;;;12.40;99.90;;;;;;5048384;28;20456;-73
2022/05/08 07:43:44;;;;;;;11.95;3.00;;;12.60;99.90;;;;;;5083050;28;20063;-69
2022/05/08 07:46:10;;;;;;;20.08;4.05;;;12.60;99.90;;;;;;5048914;28;20064;-73
2022/05/08 07:48:35;;;;;;;12.75;2.90;;;12.60;99.90;;;;;;5064754;28;20072;-71
2022/05/08 07:51:02;;;;;;;11.20;2.70;;;12.60;99.90;;;;;;5048815;28;20481;-70
2022/05/08 07:53:29;;;;;;;16.17;3.17;;;12.50;99.90;;;;;;5051930;28;20044;-72
2022/05/08 07:55:54;;;;;;;13.48;2.63;;;12.30;99.90;;;;;;5051555;28;20032;-70
2022/05/08 07:58:21;;;;;;;14.55;3.47;;;12.20;99.90;;;;;;5049684;28;20082;-73
2022/05/08 08:00:49;;;;;;;7.20;2.03;;;12.00;99.90;;;;;;5052874;28;20032;-70
2022/05/08 08:03:18;;;;;;;16.83;2.80;;;11.90;99.90;;;;;;5051850;28;20543;-77
2022/05/08 08:05:43;;;;;;;12.60;2.92;;;11.80;99.90;;;;;;5080511;28;20043;-72
2022/05/08 08:08:09;;;;;;;11.55;2.35;;;11.60;99.90;;;;;;5051325;28;20393;-72
2022/05/08 08:10:35;;;;;;;10.35;2.08;;;11.50;99.90;;;;;;5050746;28;20073;-73
2022/05/08 08:13:01;;;;;;;8.15;2.60;;;11.40;99.90;;;;;;5085731;28;20353;-73
2022/05/08 08:15:27;;;;;;;10.48;3.08;;;11.20;99.90;;;;;;5051352;28;20044;-69
2022/05/08 08:17:52;;;;;;;11.57;2.50;;;11.20;99.90;;;;;;5066143;28;20086;-75
2022/05/08 08:20:18;;;;;;;10.88;3.33;;;11.40;99.90;;;;;;5067600;28;20116;-72
2022/05/08 08:22:44;;;;;;;9.88;2.15;;;11.50;99.90;;;;;;5051735;28;20041;-69
2022/05/08 08:25:09;;;;;;;11.88;2.83;;;11.60;99.90;;;;;;5061979;28;20102;-77
2022/05/08 08:27:35;;;;;;;10.88;2.40;;;11.70;99.90;;;;;;5053913;28;20044;-74
2022/05/08 08:30:03;;;;;;;9.63;2.75;;;11.80;99.90;;;;;;5054426;28;20069;-74
2022/05/08 08:32:31;;;;;;;10.20;3.00;;;12.00;99.90;;;;;;5052620;28;20041;-70
2022/05/08 08:34:57;;;;;;;9.70;3.10;;;12.00;99.90;;;;;;5052320;28;20060;-70
2022/05/08 08:37:23;;;;;;;13.88;2.80;;;12.10;99.90;;;;;;5046590;28;20069;-71
2022/05/08 08:39:48;;;;;;;12.90;2.95;;;12.30;99.90;;;;;;5032200;28;20065;-69
2022/05/08 08:42:30;;;;;;;14.23;3.33;;;12.40;99.90;;;;;;5033760;28;20532;-70
2022/05/08 08:47:58;;;;;;;12.98;3.08;;;12.70;99.90;;;;;;5032281;28;20072;-73
2022/05/08 08:50:26;;;;;;;6.95;2.05;;;12.70;99.90;;;;;;5014684;28;20049;-67
2022/05/08 08:52:53;;;;;;;10.95;2.72;;;12.80;99.90;;;;;;5031041;28;20049;-70
2022/05/08 08:55:20;;;;;;;7.22;2.10;;;12.70;99.90;;;;;;5051436;28;20060;-69
2022/05/08 08:57:46;;;;;;;9.93;2.67;;;12.50;99.90;;;;;;5034915;28;20086;-67
2022/05/08 09:00:13;;;;;;;12.35;2.70;;;12.40;99.90;;;;;;5029997;28;20136;-69
2022/05/08 09:02:39;;;;;;;10.35;2.72;;;12.30;99.90;;;;;;5030610;28;20080;-69
2022/05/08 09:05:09;;;;;;;10.80;2.90;;;12.40;99.90;;;;;;5030906;28;20040;-71
2022/05/08 09:07:38;;;;;;;12.00;2.97;;;12.50;99.90;;;;;;5047964;28;20398;-74
2022/05/08 09:10:10;;;;;;;13.18;2.97;;;12.70;99.90;;;;;;5044176;28;20128;-70
2022/05/08 09:12:36;;;;;;;12.20;3.17;;;12.90;99.90;;;;;;5050993;28;20385;-70
2022/05/08 09:15:19;;;;;;;9.30;2.95;;;13.10;99.90;;;;;;5050955;28;20303;-68
2022/05/08 09:17:47;;;;;;;11.32;3.28;;;13.10;99.90;;;;;;5049785;28;20036;-69
2022/05/08 09:20:31;;;;;;;10.52;2.58;;;13.10;99.90;;;;;;5048673;28;20161;-72
2022/05/08 09:23:07;;;;;;;9.88;2.35;;;13.30;99.90;;;;;;5050841;28;20040;-69
2022/05/08 09:25:43;;;;;;;10.05;2.33;;;13.20;99.90;;;;;;5082570;28;20083;-71
2022/05/08 09:28:13;;;;;;;8.98;2.63;;;13.30;99.90;;;;;;5050861;28;20040;-69
2022/05/08 09:30:56;;;;;;;12.57;2.72;;;13.40;99.90;;;;;;5047596;28;20041;-70
2022/05/08 09:33:52;;;;;;;11.05;3.08;;;13.30;99.90;;;;;;5035762;28;20120;-69
2022/05/08 09:36:22;;;;;;;15.80;3.40;;;13.20;99.90;;;;;;5082402;28;20052;-71
2022/05/08 09:38:53;;;;;;;14.13;3.22;;;13.20;99.90;;;;;;5049108;28;20079;-69
2022/05/08 09:41:21;;;;;;;10.00;2.88;;;13.20;99.90;;;;;;5049615;28;20028;-69
2022/05/08 09:43:47;;;;;;;13.65;2.80;;;13.30;99.90;;;;;;5050662;28;20080;-70
2022/05/08 09:46:13;;;;;;;6.95;2.90;;;13.30;99.90;;;;;;5049435;28;20135;-70
2022/05/08 09:48:38;;;;;;;11.80;3.00;;;13.40;99.90;;;;;;5033295;28;20128;-72
2022/05/08 09:51:10;;;;;;;10.30;2.58;;;13.50;99.90;;;;;;5050115;28;20044;-73
2022/05/08 09:53:38;;;;;;;16.08;2.85;;;13.60;99.90;;;;;;5049812;28;20483;-71
2022/05/08 09:56:06;;;;;;;8.15;2.97;;;13.80;99.90;;;;;;5082557;28;20473;-68
2022/05/08 09:58:32;;;;;;;13.43;3.53;;;13.80;99.90;;;;;;5048648;28;20047;-69
2022/05/08 10:00:58;;;;;;;10.75;2.97;;;13.70;99.90;;;;;;5083564;28;20045;-71
2022/05/08 10:03:25;;;;;;;12.23;3.00;;;13.90;99.90;;;;;;5043479;28;20076;-71
2022/05/08 10:05:51;;;;;;;12.07;2.83;;;14.00;99.90;;;;;;5083998;28;20044;-70
2022/05/08 10:08:20;;;;;;;14.35;2.95;;;14.10;99.90;;;;;;5049874;28;20515;-69
2022/05/08 10:13:54;;;;;;;9.10;3.05;;;14.40;99.90;;;;;;5041380;28;20554;-71
2022/05/08 10:16:45;;;;;;;10.70;2.90;;;14.50;99.90;;;;;;5035195;28;20036;-70
2022/05/08 10:19:19;;;;;;;13.88;3.03;;;14.50;99.90;;;;;;5049384;28;20040;-71
2022/05/08 10:21:57;;;;;;;14.38;3.30;;;14.60;99.90;;;;;;5050040;28;20037;-72
2022/05/08 10:24:31;;;;;;;10.02;3.00;;;14.70;99.90;;;;;;5049821;28;20377;-69
2022/05/08 10:27:14;;;;;;;13.05;2.78;;;14.80;99.90;;;;;;5049743;28;20060;-69
2022/05/08 10:30:01;;;;;;;6.95;2.60;;;14.70;99.90;;;;;;5084584;28;20047;-69
2022/05/08 10:32:32;;;;;;;15.02;2.75;;;14.70;99.90;;;;;;5082802;28;20461;-68
2022/05/08 10:35:17;;;;;;;12.38;3.75;;;14.60;99.90;;;;;;5049589;28;20048;-69
2022/05/08 10:37:47;;;;;;;10.95;2.72;;;14.50;99.90;;;;;;5049157;28;20102;-71
2022/05/08 10:40:24;;;;;;;10.20;2.78;;;14.60;99.90;;;;;;5048867;28;20521;-70
2022/05/08 10:42:50;;;;;;;14.45;2.83;;;14.80;99.90;;;;;;5050060;28;20033;-69
2022/05/08 10:45:36;;;;;;;14.93;3.63;;;15.00;99.90;;;;;;5045453;28;20037;-71
2022/05/08 10:48:16;;;;;;;12.77;2.95;;;15.00;99.90;;;;;;5048342;28;20037;-70
2022/05/08 10:50:49;;;;;;;12.68;3.30;;;15.00;99.90;;;;;;5045695;28;20462;-70
2022/05/08 10:53:25;;;;;;;11.38;2.58;;;14.90;99.90;;;;;;5048554;28;20040;-70
2022/05/08 10:55:52;;;;;;;11.65;3.08;;;15.00;99.90;;;;;;5048443;28;20033;-68
2022/05/08 10:58:18;;;;;;;10.50;2.85;;;15.00;98.40;;;;;;5046982;28;20076;-69
2022/05/08 11:00:44;;;;;;;10.18;2.67;;;14.90;99.90;;;;;;5046846;28;20044;-70
2022/05/08 11:03:09;;;;;;;11.68;2.53;;;14.90;97.80;;;;;;5056128;28;20399;-69
2022/05/08 11:05:39;;;;;;;9.57;2.45;;;14.90;99.90;;;;;;5044908;28;20492;-69
2022/05/08 11:08:10;;;;;;;11.15;2.47;;;15.00;96.40;;;;;;5034798;28;20449;-70
2022/05/08 11:10:40;;;;;;;10.52;2.50;;;15.00;99.90;;;;;;5041174;28;20037;-71
2022/05/08 11:13:09;;;;;;;15.63;2.90;;;15.20;99.90;;;;;;5048906;28;20052;-68
2022/05/08 11:15:42;;;;;;;10.95;2.80;;;15.20;99.90;;;;;;5047068;28;20539;-68
2022/05/08 11:18:19;;;;;;;9.43;2.47;;;15.30;99.90;;;;;;5047724;28;20114;-69
2022/05/08 11:20:53;;;;;;;10.65;2.83;;;15.40;99.90;;;;;;5049141;28;20044;-69
2022/05/08 11:23:20;;;;;;;9.65;2.80;;;15.50;99.90;;;;;;5047673;28;20045;-71
2022/05/08 11:25:48;;;;;;;12.15;2.70;;;15.70;99.90;;;;;;5081503;28;20076;-71
2022/05/08 11:28:15;;;;;;;10.38;2.55;;;15.80;96.40;;;;;;5048806;28;20127;-70
2022/05/08 11:30:41;;;;;;;9.25;2.63;;;15.80;97.90;;;;;;5031978;28;20044;-69
2022/05/08 11:36:08;;;;;;;13.27;2.53;;;15.90;99.90;;;;;;5049398;28;20150;-68
2022/05/08 11:38:50;;;;;;;10.43;2.55;;;16.00;99.00;;;;;;5048402;28;20037;-69
2022/05/08 11:41:34;;;;;;;11.63;2.60;;;16.00;99.40;;;;;;5063339;28;20064;-69
2022/05/08 11:44:02;;;;;;;11.35;2.60;;;16.10;98.40;;;;;;5049270;28;20053;-70
2022/05/08 11:46:38;;;;;;;8.35;2.75;;;16.10;98.60;;;;;;5048855;28;20052;-70
2022/05/08 11:49:24;;;;;;;10.40;2.95;;;16.20;99.90;;;;;;5046056;28;20102;-70
2022/05/08 11:51:53;;;;;;;14.13;3.28;;;16.20;98.50;;;;;;5049414;28;20554;-67
2022/05/08 11:54:20;;;;;;;12.15;2.55;;;16.30;97.90;;;;;;5048541;28;20052;-71
2022/05/08 11:56:47;;;;;;;11.90;3.10;;;16.30;92.50;;;;;;5049091;28;20127;-72
2022/05/08 11:59:21;;;;;;;8.82;2.67;;;16.20;87.40;;;;;;5077468;28;20038;-67
2022/05/08 12:01:52;;;;;;;9.60;2.40;;;16.00;91.80;;;;;;5062069;28;20436;-70
2022/05/08 12:04:26;;;;;;;8.57;2.78;;;16.00;94.50;;;;;;5061992;28;20053;-71
2022/05/08 12:07:12;;;;;;;13.63;2.70;;;16.10;94.80;;;;;;5040456;28;20044;-72
2022/05/08 12:09:44;;;;;;;7.90;2.53;;;16.20;97.80;;;;;;5047942;28;20091;-71
2022/05/08 12:12:26;;;;;;;9.43;2.95;;;16.40;98.20;;;;;;5048831;28;20110;-70
2022/05/08 12:14:58;;;;;;;;;;;16.50;68.70;;;;;;5048147;28;20045;-69
2022/05/08 12:17:23;;;;;;;11.95;2.75;;;16.50;93.60;;;;;;5045860;28;19927;-71
2022/05/08 12:19:54;;;;;;;11.25;2.75;;;16.40;94.40;;;;;;5048187;28;20037;-70
2022/05/08 12:22:28;;;;;;;12.68;2.92;;;16.40;97.90;;;;;;5047582;28;20476;-70
2022/05/08 12:24:55;;;;;;;11.00;2.80;;;16.50;97.00;;;;;;5047475;28;20503;-70
2022/05/08 12:27:21;;;;;;;12.85;2.80;;;16.60;96.00;;;;;;5048620;28;20041;-71
2022/05/08 12:29:47;;;;;;;9.05;2.67;;;16.60;95.20;;;;;;5058035;28;20135;-70
2022/05/08 12:32:14;;;;;;;10.45;2.60;;;16.70;94.00;;;;;;5031096;28;20037;-69
2022/05/08 12:34:41;;;;;;;10.25;3.25;;;16.70;86.70;;;;;;5062187;28;20464;-70
2022/05/08 12:37:08;;;;;;;9.75;2.95;;;16.70;83.20;;;;;;5066404;28;20038;-70
2022/05/08 12:39:34;;;;;;;14.50;3.17;;;16.60;73.40;;;;;;5033742;28;20047;-70
2022/05/08 12:41:59;;;;;;;12.50;2.65;;;16.50;79.00;;;;;;5050803;28;20398;-70
2022/05/08 12:44:24;;;;;;;7.93;2.03;;;16.50;86.30;;;;;;5048326;28;20510;-68
2022/05/08 12:46:51;;;;;;;9.98;2.60;;;16.50;77.60;;;;;;5052134;28;20044;-71
2022/05/08 12:49:17;;;;;;;10.02;2.47;;;16.40;75.20;;;;;;5050435;28;20087;-70
2022/05/08 12:51:43;;;;;;;9.20;2.80;;;16.40;73.60;;;;;;5052161;28;20076;-69
2022/05/08 12:54:09;;;;;;;8.75;2.67;;;16.40;69.00;;;;;;5052322;28;20573;-69
2022/05/08 12:56:34;;;;;;;7.10;2.10;;;16.40;69.50;;;;;;5051645;28;20135;-67
2022/05/08 13:01:45;;;;;;;12.20;2.80;;;16.40;64.60;;;;;;5051877;28;20043;-69
2022/05/08 13:04:11;;;;;;;10.55;2.92;;;16.50;79.40;;;;;;5051585;28;20383;-71
2022/05/08 13:06:37;;;;;;;11.20;2.67;;;16.60;69.80;;;;;;5051680;28;20055;-77